Preview of NWS' New Version of Forecast
This preview is not operational and should not be used for support decisions.

Terminal Aerodrome Forecast (TAF)

Issued by National Weather Service (NWS)

                            
964 
FTUS42 KKEY 220820 AAB
TAFEYW
TAF AMD
KEYW 220820Z 2208/2306 10012G20KT P6SM VCSH SCT025 BKN050
     FM221500 10013G22KT P6SM VCSH SCT020 SCT050 BKN080=